Time;durP1;ratioP1;P1;durP2;ratioP2;P2;SDS_P1;SDS_P2;PMS_P1;PMS_P2;Temp;Humidity;BMP_temperature;BMP_pressure;BME280_temperature;BME280_humidity;BME280_pressure;Samples;Min_cycle;Max_cycle;Signal;HPM_P1;HPM_P2
2023/06/26 00:01:23;;;;;;;18.50;13.80;;;23.30;99.90;;;;;;5011889;28;20040;-64
2023/06/26 00:03:49;;;;;;;15.73;13.65;;;23.20;99.90;;;;;;5012948;28;20109;-64
2023/06/26 00:06:15;;;;;;;14.60;12.95;;;23.20;99.90;;;;;;5011019;28;20523;-64
2023/06/26 00:08:40;;;;;;;16.08;14.05;;;23.20;99.90;;;;;;5005112;28;20065;-64
2023/06/26 00:11:06;;;;;;;15.45;13.85;;;23.20;99.90;;;;;;5013244;28;20128;-64
2023/06/26 00:13:32;;;;;;;15.68;13.73;;;23.20;99.90;;;;;;5012527;28;20038;-64
2023/06/26 00:15:57;;;;;;;15.13;13.50;;;23.20;99.90;;;;;;5011802;28;20033;-64
2023/06/26 00:18:23;;;;;;;15.10;13.60;;;23.20;99.90;;;;;;5011058;28;20038;-64
2023/06/26 00:20:49;;;;;;;16.35;13.48;;;23.20;99.90;;;;;;5012880;28;20492;-64
2023/06/26 00:23:17;;;;;;;14.95;13.35;;;23.10;99.90;;;;;;5004353;28;20045;-64
2023/06/26 00:25:43;;;;;;;14.27;12.82;;;23.10;99.90;;;;;;5013231;28;20096;-64
2023/06/26 00:28:09;;;;;;;14.48;12.68;;;23.10;99.90;;;;;;5009940;28;20057;-64
2023/06/26 00:30:35;;;;;;;13.52;12.18;;;23.10;99.90;;;;;;5005054;28;20034;-64
2023/06/26 00:33:00;;;;;;;14.48;12.98;;;23.10;99.90;;;;;;5006334;28;20408;-64
2023/06/26 00:35:26;;;;;;;14.20;12.75;;;23.00;99.90;;;;;;5010715;28;20095;-64
2023/06/26 00:37:52;;;;;;;15.32;13.73;;;22.90;99.90;;;;;;5012663;28;20038;-64
2023/06/26 00:40:17;;;;;;;13.88;12.10;;;22.90;99.90;;;;;;5012184;28;20391;-64
2023/06/26 00:42:43;;;;;;;14.48;12.65;;;22.90;99.90;;;;;;5012923;28;20445;-64
2023/06/26 00:45:09;;;;;;;14.95;12.18;;;22.80;99.90;;;;;;5012997;28;20038;-64
2023/06/26 00:47:34;;;;;;;20.58;13.82;;;22.80;99.90;;;;;;5005821;28;20093;-64
2023/06/26 00:50:00;;;;;;;16.05;13.25;;;22.80;99.90;;;;;;5008554;28;20069;-64
2023/06/26 00:52:26;;;;;;;14.88;13.32;;;22.70;99.90;;;;;;5009417;28;20045;-64
2023/06/26 00:54:52;;;;;;;15.77;14.10;;;22.70;99.90;;;;;;5010569;28;20041;-64
2023/06/26 00:57:18;;;;;;;15.57;13.85;;;22.70;99.90;;;;;;5012675;28;20117;-64
2023/06/26 00:59:44;;;;;;;14.50;13.00;;;22.60;99.90;;;;;;5011875;28;20052;-64
2023/06/26 01:02:09;;;;;;;14.82;13.32;;;22.60;99.90;;;;;;5010622;28;20484;-64
2023/06/26 01:04:36;;;;;;;15.43;13.77;;;22.60;99.90;;;;;;5007534;28;20081;-64
2023/06/26 01:07:03;;;;;;;17.70;13.70;;;22.50;99.90;;;;;;4996963;28;20046;-64
2023/06/26 01:09:29;;;;;;;14.88;13.27;;;22.50;99.90;;;;;;5010389;28;20518;-64
2023/06/26 01:11:55;;;;;;;14.88;13.35;;;22.50;99.90;;;;;;5021316;28;20042;-64
2023/06/26 01:14:20;;;;;;;15.75;14.02;;;22.50;99.90;;;;;;5018551;28;20510;-64
2023/06/26 01:16:49;;;;;;;16.58;14.45;;;22.50;99.90;;;;;;5008154;28;20111;-64
2023/06/26 01:19:26;;;;;;;16.67;14.90;;;22.50;99.90;;;;;;5007864;28;20110;-64
2023/06/26 01:22:01;;;;;;;17.65;15.85;;;22.50;99.90;;;;;;4992925;28;20431;-64
2023/06/26 01:24:33;;;;;;;16.35;14.65;;;22.40;99.90;;;;;;4992746;28;20051;-64
2023/06/26 01:27:00;;;;;;;16.70;15.02;;;22.40;99.90;;;;;;5005736;28;20407;-64
2023/06/26 01:29:30;;;;;;;17.58;15.73;;;22.40;99.90;;;;;;5011300;28;20092;-64
2023/06/26 01:31:55;;;;;;;17.30;15.27;;;22.40;99.90;;;;;;5009388;28;20105;-64
2023/06/26 01:34:21;;;;;;;16.95;14.88;;;22.30;99.90;;;;;;5021095;28;21336;-64
2023/06/26 01:36:47;;;;;;;17.05;14.65;;;22.30;99.90;;;;;;5020857;28;20037;-64
2023/06/26 01:39:17;;;;;;;17.13;15.00;;;22.30;99.90;;;;;;5009587;28;20381;-64
2023/06/26 01:41:43;;;;;;;17.90;15.80;;;22.30;99.90;;;;;;5000647;28;20105;-64
2023/06/26 01:44:28;;;;;;;17.33;15.52;;;22.20;99.90;;;;;;4992302;28;20503;-64
2023/06/26 01:47:01;;;;;;;16.58;14.88;;;22.20;99.90;;;;;;5005209;28;20077;-64
2023/06/26 01:49:31;;;;;;;18.17;15.32;;;22.10;99.90;;;;;;5012170;28;20042;-64
2023/06/26 01:52:16;;;;;;;17.13;15.23;;;22.10;99.90;;;;;;5018178;28;20113;-64
2023/06/26 01:54:55;;;;;;;16.42;14.52;;;22.10;99.90;;;;;;4992198;28;20050;-64
2023/06/26 01:57:22;;;;;;;16.92;14.23;;;22.10;99.90;;;;;;4999336;28;20073;-64
2023/06/26 01:59:48;;;;;;;17.45;14.05;;;22.00;99.90;;;;;;5012089;28;20038;-64
2023/06/26 02:02:14;;;;;;;15.98;14.27;;;22.00;99.90;;;;;;5006401;28;20061;-64
2023/06/26 02:04:40;;;;;;;15.48;13.70;;;22.00;99.90;;;;;;5006274;28;20034;-64
2023/06/26 02:07:06;;;;;;;16.27;13.45;;;22.00;99.90;;;;;;5010897;28;20069;-64
2023/06/26 02:09:32;;;;;;;16.92;14.35;;;22.00;99.90;;;;;;4994089;28;20137;-64
2023/06/26 02:11:57;;;;;;;16.20;13.30;;;22.00;99.90;;;;;;5010193;28;20591;-64
2023/06/26 02:14:23;;;;;;;15.50;13.90;;;21.90;99.90;;;;;;5014890;28;20558;-64
2023/06/26 02:16:49;;;;;;;15.07;13.48;;;21.80;99.90;;;;;;4992230;28;20034;-64
2023/06/26 02:19:21;;;;;;;16.02;14.30;;;21.80;99.90;;;;;;5008164;28;20042;-64
2023/06/26 02:21:50;;;;;;;16.20;13.27;;;21.70;99.90;;;;;;5011693;28;20447;-63
2023/06/26 02:24:16;;;;;;;17.23;13.60;;;21.80;99.90;;;;;;5011290;28;20077;-64
2023/06/26 02:26:41;;;;;;;15.90;13.40;;;21.70;99.90;;;;;;5009717;28;20070;-64
2023/06/26 02:29:07;;;;;;;16.08;13.35;;;21.70;99.90;;;;;;5008687;28;20057;-64
2023/06/26 02:31:32;;;;;;;16.40;14.63;;;21.70;99.90;;;;;;4994090;28;21853;-64
2023/06/26 02:33:58;;;;;;;16.20;13.68;;;21.60;99.90;;;;;;5017772;28;20044;-64
2023/06/26 02:36:24;;;;;;;18.58;14.57;;;21.50;99.90;;;;;;5001295;28;20500;-64
2023/06/26 02:38:49;;;;;;;15.70;14.00;;;21.50;99.90;;;;;;5010080;28;20038;-64
2023/06/26 02:41:15;;;;;;;16.25;14.55;;;21.50;99.90;;;;;;5013152;28;20037;-64
2023/06/26 02:43:40;;;;;;;16.00;13.88;;;21.40;99.90;;;;;;5000725;28;20077;-64
2023/06/26 02:46:06;;;;;;;16.27;14.57;;;21.50;99.90;;;;;;4992847;28;20518;-64
2023/06/26 02:48:31;;;;;;;16.30;14.25;;;21.40;99.90;;;;;;5010145;28;20030;-63
2023/06/26 02:50:57;;;;;;;14.77;12.75;;;21.40;99.90;;;;;;5014586;28;20057;-64
2023/06/26 02:53:23;;;;;;;16.48;13.00;;;21.40;99.90;;;;;;5011465;28;20041;-63
2023/06/26 02:55:48;;;;;;;15.65;13.57;;;21.50;99.90;;;;;;5006683;28;20078;-64
2023/06/26 02:58:14;;;;;;;15.02;13.43;;;21.40;99.90;;;;;;5007635;28;20034;-64
2023/06/26 03:00:41;;;;;;;15.40;13.05;;;21.40;99.90;;;;;;5016007;28;20033;-64
2023/06/26 03:03:07;;;;;;;15.05;13.38;;;21.40;99.90;;;;;;5015303;28;20053;-64
2023/06/26 03:05:33;;;;;;;15.15;13.05;;;21.40;99.90;;;;;;5016649;28;20073;-64
2023/06/26 03:07:58;;;;;;;13.73;12.20;;;21.40;99.90;;;;;;5001976;28;20070;-64
2023/06/26 03:10:24;;;;;;;17.02;13.32;;;21.40;99.90;;;;;;5005950;28;20057;-64
2023/06/26 03:12:50;;;;;;;15.35;12.10;;;21.40;99.90;;;;;;5003571;28;20065;-64
2023/06/26 03:15:15;;;;;;;16.85;12.98;;;21.40;99.90;;;;;;5016927;28;20036;-63
2023/06/26 03:17:42;;;;;;;15.65;12.43;;;21.40;99.90;;;;;;5015739;28;20064;-64
2023/06/26 03:20:08;;;;;;;14.98;12.27;;;21.30;99.90;;;;;;5012044;28;20047;-64
2023/06/26 03:22:34;;;;;;;14.85;12.23;;;21.30;99.90;;;;;;5002888;28;20121;-64
2023/06/26 03:24:59;;;;;;;16.40;13.07;;;21.30;99.90;;;;;;5018367;28;20571;-64
2023/06/26 03:27:25;;;;;;;16.02;13.27;;;21.30;99.90;;;;;;5009295;28;20037;-63
2023/06/26 03:29:52;;;;;;;13.52;12.10;;;21.40;99.90;;;;;;5011205;28;20100;-64
2023/06/26 03:32:18;;;;;;;15.75;12.52;;;21.40;99.90;;;;;;5017376;28;20033;-64
2023/06/26 03:34:43;;;;;;;16.40;13.48;;;21.40;99.90;;;;;;5002510;28;20058;-64
2023/06/26 03:37:09;;;;;;;14.48;12.77;;;21.40;99.90;;;;;;4994951;28;20095;-64
2023/06/26 03:39:35;;;;;;;14.70;12.93;;;21.50;99.90;;;;;;5015942;28;20103;-64
2023/06/26 03:42:01;;;;;;;15.68;13.90;;;21.50;99.90;;;;;;4997938;28;20042;-64
2023/06/26 03:44:29;;;;;;;15.80;13.80;;;21.60;99.90;;;;;;5012962;28;20038;-64
2023/06/26 03:46:55;;;;;;;17.08;14.20;;;21.60;99.90;;;;;;5014112;28;20034;-64
2023/06/26 03:49:20;;;;;;;18.40;13.35;;;21.60;99.90;;;;;;5012946;28;20057;-63
2023/06/26 03:51:46;;;;;;;17.77;14.32;;;21.60;99.90;;;;;;5013171;28;20423;-64
2023/06/26 03:54:12;;;;;;;16.38;13.95;;;21.60;99.90;;;;;;5009864;28;20045;-64
2023/06/26 03:56:37;;;;;;;16.40;14.05;;;21.70;99.90;;;;;;4995137;28;20089;-64
2023/06/26 03:59:03;;;;;;;19.15;14.65;;;21.70;99.90;;;;;;5015096;28;20492;-64
2023/06/26 04:01:29;;;;;;;16.52;14.35;;;21.70;99.90;;;;;;5008673;28;20129;-64
2023/06/26 04:03:54;;;;;;;15.85;14.18;;;21.70;99.90;;;;;;5005689;28;20048;-64
2023/06/26 04:06:20;;;;;;;17.00;14.45;;;21.70;99.90;;;;;;5007395;28;20072;-64
2023/06/26 04:08:46;;;;;;;18.35;15.88;;;21.70;99.90;;;;;;4994302;28;20096;-64
2023/06/26 04:11:11;;;;;;;15.50;13.68;;;21.70;99.90;;;;;;5001906;28;20483;-64
2023/06/26 04:13:37;;;;;;;16.23;14.32;;;21.70;99.90;;;;;;5017838;28;20029;-64
2023/06/26 04:16:03;;;;;;;16.40;14.18;;;21.80;99.90;;;;;;5004152;28;20111;-64
2023/06/26 04:18:29;;;;;;;16.55;14.75;;;21.80;99.90;;;;;;5015272;28;20041;-64
2023/06/26 04:21:07;;;;;;;15.85;14.20;;;21.80;99.90;;;;;;4998480;28;20503;-64
2023/06/26 04:23:32;;;;;;;15.32;13.73;;;21.90;99.90;;;;;;5009230;28;20065;-64
2023/06/26 04:25:58;;;;;;;17.55;14.57;;;21.90;99.90;;;;;;5012140;28;20078;-64
2023/06/26 04:28:24;;;;;;;16.05;13.95;;;21.90;99.90;;;;;;4993842;28;20097;-64
2023/06/26 04:30:50;;;;;;;15.75;13.70;;;22.00;99.90;;;;;;5051286;22;20048;-61
2023/06/26 04:33:16;;;;;;;16.00;13.85;;;22.00;99.90;;;;;;5036911;28;20033;-61
2023/06/26 04:35:44;;;;;;;17.08;14.52;;;22.00;99.90;;;;;;5030867;28;20042;-62
2023/06/26 04:38:10;;;;;;;16.98;13.90;;;22.00;99.90;;;;;;5033190;28;20041;-61
2023/06/26 04:40:36;;;;;;;19.17;14.27;;;22.00;99.90;;;;;;5043256;28;20033;-61
2023/06/26 04:43:01;;;;;;;17.52;13.60;;;21.90;99.90;;;;;;5050269;28;20048;-61
2023/06/26 04:45:27;;;;;;;16.70;14.73;;;21.90;99.90;;;;;;5043414;28;20028;-62
2023/06/26 04:47:52;;;;;;;17.80;14.38;;;21.90;99.90;;;;;;5047283;28;20048;-61
2023/06/26 04:50:18;;;;;;;16.95;14.68;;;21.90;99.90;;;;;;5050185;28;20398;-62
2023/06/26 04:52:44;;;;;;;17.77;14.63;;;21.90;99.90;;;;;;5052707;28;20041;-61
2023/06/26 04:55:10;;;;;;;18.17;15.02;;;21.90;99.90;;;;;;5051088;28;20052;-62
2023/06/26 04:57:35;;;;;;;18.45;15.07;;;21.90;99.90;;;;;;5045947;28;20446;-62
2023/06/26 05:00:02;;;;;;;18.42;15.52;;;21.90;99.90;;;;;;5032420;28;20099;-62
2023/06/26 05:02:29;;;;;;;17.05;14.20;;;22.00;99.90;;;;;;5037951;28;20041;-62
2023/06/26 05:04:54;;;;;;;18.58;13.65;;;22.10;99.90;;;;;;5067485;28;20115;-61
2023/06/26 05:07:20;;;;;;;16.30;13.20;;;22.10;99.90;;;;;;5051418;28;20124;-62
2023/06/26 05:09:46;;;;;;;15.02;12.70;;;22.20;99.90;;;;;;5051395;28;20036;-62
2023/06/26 05:12:12;;;;;;;16.10;12.80;;;22.40;99.90;;;;;;5035430;28;20041;-62
2023/06/26 05:14:38;;;;;;;16.30;12.20;;;22.40;99.90;;;;;;5046045;28;20495;-62
2023/06/26 05:17:04;;;;;;;14.25;11.55;;;22.50;99.90;;;;;;5051023;28;20046;-61
2023/06/26 05:19:29;;;;;;;13.23;9.75;;;22.50;99.90;;;;;;5050268;28;20036;-62
2023/06/26 05:21:56;;;;;;;13.13;8.85;;;22.40;99.90;;;;;;5047828;28;20025;-61
2023/06/26 05:24:22;;;;;;;20.20;9.63;;;22.40;99.90;;;;;;5042305;28;20048;-61
2023/06/26 05:26:48;;;;;;;16.83;8.52;;;22.30;99.90;;;;;;5051174;28;20044;-62
2023/06/26 05:29:14;;;;;;;14.63;8.73;;;22.30;99.90;;;;;;5043656;28;20040;-62
2023/06/26 05:31:41;;;;;;;14.68;8.20;;;22.30;99.90;;;;;;5051856;28;20044;-62
2023/06/26 05:34:09;;;;;;;13.63;8.45;;;22.20;99.90;;;;;;5051729;28;20079;-62
2023/06/26 05:36:36;;;;;;;16.15;8.52;;;22.30;99.90;;;;;;5048954;28;20056;-62
2023/06/26 05:39:02;;;;;;;14.52;7.85;;;22.30;99.90;;;;;;5049829;28;20036;-61
2023/06/26 05:41:28;;;;;;;15.35;7.53;;;22.40;99.90;;;;;;5044676;28;20439;-61
2023/06/26 05:43:54;;;;;;;16.52;7.95;;;22.40;99.90;;;;;;5047951;28;20067;-61
2023/06/26 05:46:20;;;;;;;13.38;7.07;;;22.40;99.90;;;;;;5047451;28;20073;-61
2023/06/26 05:48:47;;;;;;;16.33;6.80;;;22.50;99.90;;;;;;5032046;28;20045;-62
2023/06/26 05:51:13;;;;;;;14.02;7.22;;;22.50;99.90;;;;;;5035789;28;20038;-61
2023/06/26 05:53:39;;;;;;;18.55;7.63;;;22.50;99.90;;;;;;5049675;28;20047;-61
2023/06/26 05:56:05;;;;;;;15.57;6.88;;;22.40;99.90;;;;;;5047256;28;20051;-62
2023/06/26 05:58:31;;;;;;;18.63;7.95;;;22.30;99.90;;;;;;5046670;28;20036;-61
2023/06/26 06:00:56;;;;;;;14.63;7.05;;;22.20;99.90;;;;;;5033559;28;20034;-61
2023/06/26 06:03:22;;;;;;;17.10;7.13;;;22.00;99.90;;;;;;5031698;28;20033;-61
2023/06/26 06:05:48;;;;;;;13.25;7.10;;;21.90;99.90;;;;;;5049606;28;20130;-65
2023/06/26 06:08:13;;;;;;;15.63;6.55;;;21.90;99.90;;;;;;5048085;28;20076;-65
2023/06/26 06:10:39;;;;;;;17.33;7.13;;;21.90;99.90;;;;;;5045430;28;20529;-65
2023/06/26 06:13:04;;;;;;;11.23;6.72;;;21.90;99.90;;;;;;5042134;28;20043;-65
2023/06/26 06:15:30;;;;;;;13.25;6.97;;;21.90;99.90;;;;;;5047863;28;20055;-65
2023/06/26 06:17:56;;;;;;;13.80;6.03;;;22.00;99.90;;;;;;5049728;28;20029;-65
2023/06/26 06:20:21;;;;;;;12.82;6.15;;;22.20;99.90;;;;;;5049134;28;20474;-65
2023/06/26 06:22:48;;;;;;;11.68;6.10;;;22.30;99.90;;;;;;5041945;28;20078;-65
2023/06/26 06:25:14;;;;;;;8.55;5.68;;;22.30;99.90;;;;;;5046913;28;20132;-65
2023/06/26 06:27:40;;;;;;;9.90;5.60;;;22.40;99.90;;;;;;5065981;28;20075;-65
2023/06/26 06:30:06;;;;;;;13.98;5.55;;;22.50;99.90;;;;;;5054707;28;20073;-65
2023/06/26 06:32:32;;;;;;;12.45;4.75;;;22.60;99.90;;;;;;5054328;28;20075;-65
2023/06/26 06:34:57;;;;;;;13.48;5.22;;;22.60;99.90;;;;;;5053861;28;20056;-65
2023/06/26 06:37:23;;;;;;;9.07;4.53;;;22.50;99.90;;;;;;5054497;28;20448;-65
2023/06/26 06:39:48;;;;;;;9.02;4.55;;;22.50;99.90;;;;;;5054056;28;20101;-65
2023/06/26 06:42:14;;;;;;;9.63;4.78;;;22.50;99.90;;;;;;5054013;28;20471;-65
2023/06/26 06:44:40;;;;;;;10.30;4.38;;;22.40;99.90;;;;;;5052660;28;20040;-65
2023/06/26 06:47:05;;;;;;;10.85;4.13;;;22.60;99.90;;;;;;5052879;28;20147;-65
2023/06/26 06:49:31;;;;;;;7.30;3.50;;;22.70;99.90;;;;;;5054141;28;20075;-65
2023/06/26 06:51:56;;;;;;;8.75;3.63;;;22.70;99.90;;;;;;5052996;28;20167;-65
2023/06/26 06:54:25;;;;;;;7.97;3.42;;;22.90;99.90;;;;;;5049413;28;20033;-65
2023/06/26 06:56:51;;;;;;;13.27;3.92;;;22.90;99.90;;;;;;5042774;28;20037;-65
2023/06/26 06:59:16;;;;;;;9.27;3.70;;;23.10;99.90;;;;;;5038489;28;20489;-65
2023/06/26 07:01:42;;;;;;;6.88;3.42;;;23.20;99.90;;;;;;5053817;28;20037;-65
2023/06/26 07:04:08;;;;;;;8.27;2.85;;;23.20;99.90;;;;;;5048660;28;20047;-65
2023/06/26 07:06:34;;;;;;;6.65;2.40;;;23.40;99.90;;;;;;5048774;28;20037;-65
2023/06/26 07:08:59;;;;;;;6.10;2.38;;;23.40;99.90;;;;;;5051882;28;20068;-65
2023/06/26 07:11:25;;;;;;;6.53;2.58;;;23.40;99.90;;;;;;5048628;28;20030;-65
2023/06/26 07:13:50;;;;;;;5.82;2.03;;;23.50;99.90;;;;;;5044609;28;20119;-65
2023/06/26 07:16:16;;;;;;;4.45;2.10;;;23.60;99.90;;;;;;5053321;28;20036;-65
2023/06/26 07:18:43;;;;;;;7.05;2.50;;;23.60;99.90;;;;;;5048544;28;20029;-65
2023/06/26 07:21:08;;;;;;;6.30;2.00;;;23.60;99.90;;;;;;5049253;28;20049;-66
2023/06/26 07:23:34;;;;;;;3.95;1.80;;;23.70;99.90;;;;;;5052049;28;20037;-65
2023/06/26 07:26:00;;;;;;;5.57;1.80;;;23.80;99.90;;;;;;5048112;28;20521;-65
2023/06/26 07:28:25;;;;;;;5.18;2.20;;;23.90;99.90;;;;;;5053965;28;20124;-65
2023/06/26 07:30:51;;;;;;;4.43;1.95;;;24.00;99.90;;;;;;5052354;28;20042;-65
2023/06/26 07:33:16;;;;;;;4.80;1.73;;;24.20;99.90;;;;;;5052712;28;20470;-65
2023/06/26 07:35:42;;;;;;;6.00;2.00;;;24.40;99.90;;;;;;5050761;28;20402;-65
2023/06/26 07:38:07;;;;;;;4.70;2.00;;;24.40;99.90;;;;;;5050720;28;20082;-65
2023/06/26 07:40:33;;;;;;;5.07;1.75;;;24.40;99.40;;;;;;5047258;28;20056;-65
2023/06/26 07:42:59;;;;;;;5.05;1.70;;;24.50;98.80;;;;;;5042676;28;20041;-64
2023/06/26 07:45:24;;;;;;;6.78;1.90;;;24.60;98.40;;;;;;5050350;28;20430;-65
2023/06/26 07:47:50;;;;;;;4.13;1.48;;;24.60;98.00;;;;;;5051090;28;20501;-64
2023/06/26 07:50:21;;;;;;;3.85;1.55;;;24.60;97.40;;;;;;5050083;28;20037;-65
2023/06/26 07:52:47;;;;;;;6.35;1.75;;;24.60;97.20;;;;;;5047072;28;20041;-65
2023/06/26 07:55:12;;;;;;;4.00;1.92;;;24.60;96.50;;;;;;5052275;28;20407;-65
2023/06/26 07:57:38;;;;;;;4.03;1.52;;;24.70;96.40;;;;;;5051023;28;20033;-66
2023/06/26 08:00:06;;;;;;;2.42;1.77;;;24.90;96.70;;;;;;5041822;28;20044;-65
2023/06/26 08:02:32;;;;;;;3.75;1.60;;;24.90;95.90;;;;;;5043082;28;20040;-65
2023/06/26 08:04:57;;;;;;;4.38;1.67;;;25.00;96.10;;;;;;5051143;28;20087;-65
2023/06/26 08:07:23;;;;;;;3.92;1.42;;;25.30;95.70;;;;;;5051476;28;20037;-65
2023/06/26 08:09:49;;;;;;;4.53;1.65;;;25.40;95.00;;;;;;5052941;28;20036;-65
2023/06/26 08:12:14;;;;;;;5.72;1.90;;;25.40;94.30;;;;;;5033739;28;20458;-65
2023/06/26 08:14:40;;;;;;;5.75;2.03;;;25.40;93.70;;;;;;5043690;28;20402;-65
2023/06/26 08:17:05;;;;;;;3.33;1.67;;;25.50;93.90;;;;;;5050061;28;20055;-64
2023/06/26 08:19:31;;;;;;;5.28;1.90;;;25.60;93.70;;;;;;5047003;28;20088;-65
2023/06/26 08:21:57;;;;;;;4.32;1.33;;;25.80;93.40;;;;;;5048372;28;20031;-65
2023/06/26 08:24:22;;;;;;;3.25;1.50;;;25.90;92.80;;;;;;5042893;28;20056;-65
2023/06/26 08:26:48;;;;;;;5.03;1.55;;;25.90;92.60;;;;;;5048165;28;20367;-65
2023/06/26 08:29:14;;;;;;;2.88;1.60;;;25.70;92.40;;;;;;5048402;28;20055;-65
2023/06/26 08:31:40;;;;;;;2.35;1.50;;;25.60;92.70;;;;;;5049868;28;20067;-65
2023/06/26 08:34:07;;;;;;;5.18;1.55;;;25.40;92.90;;;;;;5042874;28;20056;-64
2023/06/26 08:36:32;;;;;;;4.15;1.58;;;25.10;92.90;;;;;;5047620;28;20061;-64
2023/06/26 08:38:58;;;;;;;3.08;1.33;;;24.80;93.00;;;;;;5046224;28;20056;-64
2023/06/26 08:41:24;;;;;;;5.35;1.65;;;24.80;93.40;;;;;;5046389;28;20048;-64
2023/06/26 08:43:52;;;;;;;2.80;1.33;;;25.00;93.60;;;;;;5044710;28;20029;-64
2023/06/26 08:46:19;;;;;;;3.67;1.50;;;25.30;92.70;;;;;;5049203;28;20052;-64
2023/06/26 08:48:56;;;;;;;2.33;1.50;;;25.40;92.10;;;;;;5050653;28;20033;-64
2023/06/26 08:51:25;;;;;;;7.15;1.70;;;25.60;91.00;;;;;;5050780;28;20040;-64
2023/06/26 08:53:58;;;;;;;6.38;1.92;;;25.40;90.60;;;;;;5035521;28;20048;-64
2023/06/26 08:56:27;;;;;;;2.20;1.55;;;25.10;90.50;;;;;;5043042;28;20041;-64
2023/06/26 08:58:53;;;;;;;2.58;1.30;;;25.00;91.20;;;;;;5045837;28;20084;-64
2023/06/26 09:01:20;;;;;;;4.35;1.55;;;25.20;91.20;;;;;;5050225;28;20060;-64
2023/06/26 09:03:45;;;;;;;3.10;1.90;;;25.40;91.00;;;;;;5050289;28;20033;-64
2023/06/26 09:06:11;;;;;;;2.75;1.65;;;25.50;90.50;;;;;;5046595;28;20033;-64
2023/06/26 09:08:37;;;;;;;3.47;2.00;;;25.60;90.30;;;;;;5045639;28;20037;-64
2023/06/26 09:11:02;;;;;;;4.78;2.13;;;25.70;90.60;;;;;;5048481;28;20029;-64
2023/06/26 09:13:31;;;;;;;3.28;2.13;;;25.60;90.40;;;;;;5050392;28;20482;-64
2023/06/26 09:15:57;;;;;;;2.08;1.50;;;25.30;90.00;;;;;;5057135;28;20029;-64
2023/06/26 09:18:23;;;;;;;3.85;1.80;;;25.10;90.50;;;;;;5049231;28;20033;-65
2023/06/26 09:20:50;;;;;;;5.47;1.85;;;24.80;90.80;;;;;;5043981;28;20033;-64
2023/06/26 09:23:16;;;;;;;3.97;2.30;;;24.60;91.00;;;;;;5044328;28;20033;-64
2023/06/26 09:25:44;;;;;;;4.78;2.00;;;24.50;91.40;;;;;;5049231;28;20059;-65
2023/06/26 09:28:10;;;;;;;3.08;1.70;;;24.60;91.60;;;;;;5049846;28;20040;-65
2023/06/26 09:30:36;;;;;;;3.30;1.90;;;24.90;91.30;;;;;;5041965;28;20422;-64
2023/06/26 09:33:20;;;;;;;4.93;1.90;;;25.20;91.20;;;;;;5048881;28;20041;-65
2023/06/26 09:35:47;;;;;;;4.30;1.65;;;25.50;91.00;;;;;;5047284;28;20036;-64
2023/06/26 09:38:14;;;;;;;6.68;2.08;;;25.60;90.80;;;;;;5050913;28;20043;-65
2023/06/26 09:40:40;;;;;;;3.90;1.75;;;25.50;90.60;;;;;;5040961;28;20495;-64
2023/06/26 09:43:12;;;;;;;5.00;2.20;;;25.20;90.60;;;;;;5050680;28;20124;-64
2023/06/26 09:45:40;;;;;;;2.88;1.80;;;25.00;90.90;;;;;;5050157;28;20060;-65
2023/06/26 09:48:11;;;;;;;5.07;2.30;;;25.10;91.50;;;;;;5049425;28;20128;-65
2023/06/26 09:50:41;;;;;;;5.63;2.00;;;25.40;91.20;;;;;;5044995;28;20590;-65
2023/06/26 09:53:13;;;;;;;10.07;2.35;;;25.40;90.90;;;;;;5049053;28;20033;-66
2023/06/26 09:55:40;;;;;;;6.40;2.35;;;25.10;90.40;;;;;;5043306;28;20037;-65
2023/06/26 09:58:06;;;;;;;4.55;2.33;;;24.80;89.50;;;;;;5044708;28;20044;-65
2023/06/26 10:00:32;;;;;;;4.90;2.10;;;24.60;89.60;;;;;;5048831;28;20041;-65
2023/06/26 10:03:01;;;;;;;4.28;2.15;;;24.60;90.40;;;;;;5049816;28;20057;-65
2023/06/26 10:05:27;;;;;;;5.70;2.25;;;24.90;91.30;;;;;;5038916;28;20045;-64
2023/06/26 10:07:54;;;;;;;4.53;2.08;;;25.10;90.90;;;;;;5039498;28;20040;-65
2023/06/26 10:10:22;;;;;;;4.60;2.08;;;25.20;90.40;;;;;;5042425;28;20033;-64
2023/06/26 10:12:51;;;;;;;4.47;2.03;;;25.20;89.70;;;;;;5043911;28;20800;-65
2023/06/26 10:15:17;;;;;;;3.47;1.90;;;25.30;89.80;;;;;;5045711;28;20052;-68
2023/06/26 10:17:44;;;;;;;4.15;1.83;;;25.50;88.10;;;;;;5047629;28;20486;-68
2023/06/26 10:20:11;;;;;;;5.68;2.13;;;25.60;85.80;;;;;;5044628;28;20025;-67
2023/06/26 10:22:47;;;;;;;8.30;2.25;;;25.50;85.70;;;;;;5042668;28;20034;-67
2023/06/26 10:25:19;;;;;;;4.35;1.83;;;25.20;83.80;;;;;;5048373;28;20036;-67
2023/06/26 10:27:56;;;;;;;6.35;2.08;;;24.90;83.90;;;;;;5038386;28;20461;-67
2023/06/26 10:30:27;;;;;;;6.90;2.28;;;24.60;83.90;;;;;;5050053;22;20052;-66
2023/06/26 10:32:54;;;;;;;4.53;2.40;;;24.20;84.80;;;;;;5019467;28;20042;-65
2023/06/26 10:35:20;;;;;;;5.25;2.20;;;24.30;85.80;;;;;;5021345;28;20069;-66
2023/06/26 10:37:50;;;;;;;4.10;2.38;;;24.40;86.20;;;;;;5014980;28;20120;-66
2023/06/26 10:40:25;;;;;;;4.10;2.22;;;24.80;86.00;;;;;;5007731;28;20045;-66
2023/06/26 10:43:04;;;;;;;2.80;1.67;;;25.10;87.10;;;;;;5003449;28;20030;-66
2023/06/26 10:45:30;;;;;;;7.18;1.58;;;25.40;81.60;;;;;;5007112;28;20069;-66
2023/06/26 10:47:57;;;;;;;4.88;1.77;;;25.70;80.10;;;;;;5004856;28;20048;-66
2023/06/26 10:50:37;;;;;;;6.13;2.15;;;25.90;79.80;;;;;;5004916;28;20038;-65
2023/06/26 10:53:21;;;;;;;6.18;2.13;;;26.20;78.00;;;;;;5000404;28;20069;-65
2023/06/26 10:55:56;;;;;;;9.15;2.03;;;26.30;75.50;;;;;;5004978;28;20050;-65
2023/06/26 10:58:39;;;;;;;2.53;1.90;;;26.30;75.60;;;;;;4989814;28;20125;-66
2023/06/26 11:01:11;;;;;;;5.88;1.58;;;26.10;76.00;;;;;;5005924;28;20049;-66
2023/06/26 11:03:39;;;;;;;3.00;1.50;;;25.90;73.80;;;;;;5010198;28;20042;-65
2023/06/26 11:06:19;;;;;;;3.30;1.60;;;25.80;73.50;;;;;;5003574;28;20092;-66
2023/06/26 11:08:47;;;;;;;4.37;1.90;;;25.80;72.90;;;;;;5001797;28;20034;-66
2023/06/26 11:11:13;;;;;;;4.85;1.80;;;25.90;73.30;;;;;;5001996;28;20073;-67
2023/06/26 11:13:40;;;;;;;5.90;2.25;;;26.20;74.60;;;;;;5000084;28;20132;-66
2023/06/26 11:16:06;;;;;;;5.53;1.90;;;26.10;74.80;;;;;;5002747;28;20042;-66
2023/06/26 11:18:32;;;;;;;3.90;1.70;;;26.00;75.30;;;;;;5008857;28;20034;-66
2023/06/26 11:21:13;;;;;;;3.30;1.60;;;26.00;75.90;;;;;;5005059;28;20046;-66
2023/06/26 11:23:39;;;;;;;3.00;1.58;;;26.30;76.90;;;;;;5002661;28;20045;-66
2023/06/26 11:26:21;;;;;;;4.20;1.67;;;26.40;72.90;;;;;;5000936;28;20053;-67
2023/06/26 11:28:48;;;;;;;6.65;2.00;;;26.60;71.50;;;;;;5002553;28;20120;-66
2023/06/26 11:31:31;;;;;;;4.93;1.65;;;26.60;71.30;;;;;;5000002;28;20052;-66
2023/06/26 11:34:01;;;;;;;4.80;1.58;;;26.40;71.90;;;;;;5012672;28;20048;-66
2023/06/26 11:36:28;;;;;;;3.95;1.67;;;26.20;72.30;;;;;;5005465;28;20516;-66
2023/06/26 11:38:58;;;;;;;5.45;1.60;;;26.10;72.40;;;;;;5011416;28;20037;-66
2023/06/26 11:41:26;;;;;;;7.25;1.67;;;25.90;69.80;;;;;;5002588;28;20543;-67
2023/06/26 11:43:52;;;;;;;7.93;1.67;;;25.90;69.20;;;;;;5004512;28;20069;-66
2023/06/26 11:46:20;;;;;;;6.20;1.50;;;25.90;67.70;;;;;;5002246;28;20039;-66
2023/06/26 11:48:46;;;;;;;5.38;1.60;;;25.90;67.70;;;;;;5006465;28;20116;-66
2023/06/26 11:51:15;;;;;;;6.20;1.52;;;25.90;68.20;;;;;;5001360;28;20038;-66
2023/06/26 11:53:42;;;;;;;8.02;1.60;;;25.80;69.30;;;;;;5005997;28;20042;-66
2023/06/26 11:56:12;;;;;;;2.42;1.42;;;25.60;69.50;;;;;;5010503;28;20048;-66
2023/06/26 11:58:57;;;;;;;5.38;1.48;;;25.50;68.50;;;;;;5007123;28;20515;-67
2023/06/26 12:01:23;;;;;;;5.68;2.30;;;25.50;68.00;;;;;;5006482;28;20049;-67
2023/06/26 12:03:50;;;;;;;5.40;1.50;;;25.70;67.60;;;;;;5000946;28;20369;-66
2023/06/26 12:06:16;;;;;;;3.88;1.15;;;25.90;68.00;;;;;;4998722;28;20069;-67
2023/06/26 12:08:43;;;;;;;4.45;1.40;;;26.00;68.00;;;;;;5005682;28;20052;-66
2023/06/26 12:11:09;;;;;;;6.28;1.60;;;25.90;67.80;;;;;;5010631;28;20046;-66
2023/06/26 12:13:34;;;;;;;3.80;1.60;;;25.80;68.00;;;;;;5006826;28;20037;-66
2023/06/26 12:16:00;;;;;;;4.63;1.50;;;25.70;69.10;;;;;;5002810;28;20042;-66
2023/06/26 12:18:32;;;;;;;4.70;1.48;;;25.60;70.10;;;;;;5004214;28;20040;-66
2023/06/26 12:20:58;;;;;;;5.13;1.40;;;25.60;69.80;;;;;;4995538;28;20605;-66
2023/06/26 12:23:23;;;;;;;3.72;1.50;;;25.40;68.70;;;;;;4998316;28;20121;-66
2023/06/26 12:25:51;;;;;;;6.78;1.35;;;25.30;69.40;;;;;;4995206;28;20516;-66
2023/06/26 12:28:18;;;;;;;5.40;1.10;;;25.40;69.00;;;;;;4993420;28;20038;-66
2023/06/26 12:30:47;;;;;;;3.25;1.00;;;25.40;68.40;;;;;;5009262;28;20080;-66
2023/06/26 12:33:15;;;;;;;3.63;0.87;;;25.40;67.00;;;;;;5004377;28;20045;-66
2023/06/26 12:35:41;;;;;;;3.90;1.20;;;25.50;67.20;;;;;;5001801;28;20305;-65
2023/06/26 12:38:10;;;;;;;4.60;1.25;;;25.50;67.30;;;;;;5006370;28;20515;-66